Terminal Aerodrome Forecast
Issued by NWS Bismarck, ND

Home | Current Version | Previous Version | Text Only | Print | Product List | Glossary On
Versions: 1 2 3 4 5 6 7 8 9 10 11 12 13 14 15 16 17 18 19 20 21 22 23 24 25 26
541
FTUS43 KBIS 241123
TAFBIS
TAF
KBIS 241123Z 2412/2512 33007KT P6SM BKN040
     FM241700 33007KT P6SM SCT040 BKN080
     FM250000 34006KT P6SM SCT140
     FM250600 00000KT P6SM BKN060=

USA.gov is the U.S. government's official web portal to all federal, state and local government web resources and services.